createdAt,value
2022-11-02T00:03:26.274Z,86.7
2022-11-02T00:09:26.308Z,85.2
2022-11-02T00:15:26.291Z,85.9
2022-11-02T00:21:26.310Z,84.6
2022-11-02T00:27:26.276Z,83.9
2022-11-02T00:33:26.322Z,83.4
2022-11-02T00:39:26.293Z,83.3
2022-11-02T00:45:26.267Z,85
2022-11-02T00:51:26.309Z,83.8
2022-11-02T00:57:26.266Z,84.9
2022-11-02T01:03:26.311Z,84
2022-11-02T01:09:26.304Z,84.4
2022-11-02T01:15:26.294Z,83.7
2022-11-02T01:21:26.286Z,83.9
2022-11-02T01:27:26.298Z,83.3
2022-11-02T01:33:26.267Z,83.7
2022-11-02T01:39:26.282Z,82.9
2022-11-02T01:45:26.336Z,83.2
2022-11-02T01:51:26.290Z,83.8
2022-11-02T01:57:26.295Z,83.9
2022-11-02T02:03:26.303Z,83.2
2022-11-02T02:09:26.271Z,84.2
2022-11-02T02:15:26.286Z,83.7
2022-11-02T02:21:26.332Z,83.2
2022-11-02T02:27:26.264Z,84.1
2022-11-02T02:33:26.280Z,84.9
2022-11-02T02:39:26.307Z,86.9
2022-11-02T02:45:26.285Z,87.2
2022-11-02T02:51:26.289Z,88.6
2022-11-02T02:57:26.322Z,88.7
2022-11-02T03:03:26.303Z,89.9
2022-11-02T03:09:26.303Z,90.5
2022-11-02T03:15:26.411Z,90.9
2022-11-02T03:21:26.278Z,91
2022-11-02T03:27:26.524Z,91.9
2022-11-02T03:33:26.307Z,91.5
2022-11-02T03:39:26.293Z,90.7
2022-11-02T03:45:26.278Z,90.7
2022-11-02T03:51:26.305Z,91
2022-11-02T03:57:26.279Z,91.6
2022-11-02T04:03:26.270Z,91.6
2022-11-02T04:09:26.306Z,92.1
2022-11-02T04:15:26.283Z,91.4
2022-11-02T04:21:26.285Z,91.4
2022-11-02T04:27:26.315Z,91.2
2022-11-02T04:33:26.268Z,91.4
2022-11-02T04:39:26.291Z,91.7
2022-11-02T04:45:26.309Z,92.4
2022-11-02T04:51:26.296Z,90.8
2022-11-02T04:57:26.299Z,91.5
2022-11-02T05:03:26.294Z,92.2
2022-11-02T05:09:26.283Z,92.5
2022-11-02T05:15:26.290Z,92.8
2022-11-02T05:21:26.325Z,93.2
2022-11-02T05:27:26.274Z,93.4
2022-11-02T05:33:30.367Z,93.4
2022-11-02T05:39:26.348Z,93
2022-11-02T05:45:26.262Z,93.3
2022-11-02T05:51:26.279Z,92
2022-11-02T05:57:26.294Z,92
2022-11-02T06:03:26.288Z,92.1
2022-11-02T06:09:26.287Z,91.8
2022-11-02T06:15:26.298Z,91.6
2022-11-02T06:21:26.272Z,92.2
2022-11-02T06:27:26.270Z,91.8
2022-11-02T06:33:26.326Z,91.7
2022-11-02T06:39:26.405Z,90.1
2022-11-02T06:45:26.277Z,89.4
2022-11-02T06:51:26.295Z,89.4
2022-11-02T06:57:26.273Z,88.8
2022-11-02T07:03:26.258Z,87.3
2022-11-02T07:09:26.305Z,86.3
2022-11-02T07:15:26.270Z,87.3
2022-11-02T07:21:26.259Z,86.1
2022-11-02T07:27:26.301Z,84.5
2022-11-02T07:33:26.284Z,76.4
2022-11-02T07:39:26.268Z,78.2
2022-11-02T07:45:26.308Z,82.3
2022-11-02T07:51:26.270Z,83.1
2022-11-02T07:57:26.277Z,83.2
2022-11-02T08:03:26.420Z,81.5
2022-11-02T08:09:26.283Z,77.4
2022-11-02T08:15:26.270Z,71.1
2022-11-02T08:21:26.296Z,62.3
2022-11-02T08:27:26.278Z,57
2022-11-02T08:33:26.287Z,54.4
2022-11-02T08:39:26.296Z,47.5
2022-11-02T08:45:26.338Z,47.9
2022-11-02T08:51:26.367Z,47.4
2022-11-02T08:57:26.294Z,41.8
2022-11-02T09:03:27.482Z,46.8
2022-11-02T09:09:26.298Z,45.2
2022-11-02T09:15:26.301Z,43.7
2022-11-02T09:21:26.300Z,47.2
2022-11-02T09:27:26.291Z,51.9
2022-11-02T09:33:26.351Z,53.4
2022-11-02T09:39:26.314Z,53
2022-11-02T09:45:26.278Z,52.1
2022-11-02T09:51:26.339Z,46.7
2022-11-02T09:57:26.321Z,43.1
2022-11-02T10:03:26.287Z,49.1
2022-11-02T10:09:26.331Z,46.8
2022-11-02T10:15:26.313Z,43.8
2022-11-02T10:21:26.302Z,42.8
2022-11-02T10:27:26.316Z,44.9
2022-11-02T10:33:26.344Z,44.7
2022-11-02T10:39:26.325Z,48.6
2022-11-02T10:45:26.339Z,51
2022-11-02T10:51:26.317Z,48.5
2022-11-02T10:57:26.312Z,51.3
2022-11-02T11:03:26.341Z,50.8
2022-11-02T11:09:26.314Z,52.3
2022-11-02T11:21:26.354Z,52
2022-11-02T11:27:26.316Z,52.3
2022-11-02T11:33:26.319Z,54.2
2022-11-02T11:39:26.347Z,54.4
2022-11-02T11:45:26.330Z,54.5
2022-11-02T11:51:26.581Z,52.9
2022-11-02T11:57:26.424Z,54.7
2022-11-02T12:03:26.375Z,51.6
2022-11-02T12:09:26.312Z,53
2022-11-02T12:15:26.345Z,53.6
2022-11-02T12:21:26.345Z,54.2
2022-11-02T12:27:26.320Z,53
2022-11-02T12:33:26.338Z,48.8
2022-11-02T12:39:26.334Z,49.8
2022-11-02T12:45:26.306Z,51.3
2022-11-02T12:51:26.407Z,51.1
2022-11-02T12:57:26.347Z,51.5
2022-11-02T13:03:26.330Z,49.7
2022-11-02T13:09:26.338Z,49.9
2022-11-02T13:15:26.346Z,49.1
2022-11-02T13:21:26.335Z,51.1
2022-11-02T13:27:36.361Z,51.4
2022-11-02T13:33:26.350Z,51.3
2022-11-02T13:39:26.336Z,51.9
2022-11-02T13:45:26.399Z,52.4
2022-11-02T13:51:26.337Z,52.6
2022-11-02T13:57:26.339Z,52
2022-11-02T14:03:26.375Z,53.7
2022-11-02T14:09:26.331Z,54.3
2022-11-02T14:15:26.415Z,54.3
2022-11-02T14:21:26.377Z,54.1
2022-11-02T14:27:26.353Z,55
2022-11-02T14:33:26.326Z,55.3
2022-11-02T14:39:26.381Z,55.3
2022-11-02T14:45:26.361Z,54.7
2022-11-02T14:51:26.363Z,55.6
2022-11-02T14:57:26.371Z,57
2022-11-02T15:03:26.344Z,57.2
2022-11-02T15:09:26.347Z,57
2022-11-02T15:15:26.367Z,57.5
2022-11-02T15:21:26.326Z,59.3
2022-11-02T15:27:26.344Z,58.8
2022-11-02T15:33:26.350Z,59.7
2022-11-02T15:39:26.355Z,57.5
2022-11-02T15:45:47.485Z,59.3
2022-11-02T15:51:26.386Z,59.9
2022-11-02T15:57:26.373Z,59.2
2022-11-02T16:03:26.334Z,60.4
2022-11-02T16:09:26.364Z,60.3
2022-11-02T16:15:26.326Z,60.4
2022-11-02T16:21:26.346Z,60.9
2022-11-02T16:27:26.385Z,62
2022-11-02T16:33:26.347Z,63.4
2022-11-02T16:39:26.327Z,63.8
2022-11-02T16:45:26.381Z,64.1
2022-11-02T16:51:26.326Z,64.5
2022-11-02T16:57:26.343Z,63.4
2022-11-02T17:03:26.409Z,64.5
2022-11-02T17:09:26.363Z,65.2
2022-11-02T17:15:26.347Z,64.9
2022-11-02T17:21:26.361Z,65.4
2022-11-02T17:27:26.361Z,65.9
2022-11-02T17:33:26.358Z,66.2
2022-11-02T17:39:26.401Z,66.1
2022-11-02T17:45:26.350Z,67
2022-11-02T17:51:26.331Z,67.7
2022-11-02T17:57:26.374Z,68
2022-11-02T18:03:31.144Z,68.6
2022-11-02T18:09:26.342Z,69.1
2022-11-02T18:15:26.387Z,69.2
2022-11-02T18:21:26.342Z,70.7
2022-11-02T18:27:28.748Z,71.1
2022-11-02T18:33:26.401Z,71.1
2022-11-02T18:39:26.343Z,71.6
2022-11-02T18:45:26.465Z,71.1
2022-11-02T18:51:26.368Z,72.3
2022-11-02T18:57:28.170Z,72.9
2022-11-02T19:03:26.357Z,74
2022-11-02T19:09:26.378Z,74.5
2022-11-02T19:15:26.363Z,74.9
2022-11-02T19:21:26.386Z,75.3
2022-11-02T19:27:26.418Z,75.3
2022-11-02T19:33:26.347Z,76.1
2022-11-02T19:39:26.368Z,76.9
2022-11-02T19:45:26.376Z,76.7
2022-11-02T19:51:26.357Z,77.1
2022-11-02T19:57:30.708Z,77.5
2022-11-02T20:03:27.337Z,76.9
2022-11-02T20:09:27.319Z,76.7
2022-11-02T20:15:27.350Z,76.1
2022-11-02T20:21:32.420Z,76.3
2022-11-02T20:27:27.396Z,76.3
2022-11-02T20:33:27.406Z,76.7
2022-11-02T20:39:27.349Z,77.1
2022-11-02T20:45:27.310Z,77.7
2022-11-02T20:51:27.332Z,77.8
2022-11-02T20:57:27.360Z,78.1
2022-11-02T21:03:27.343Z,78.4
2022-11-02T21:09:27.317Z,78.4
2022-11-02T21:15:27.345Z,78.2
2022-11-02T21:21:27.303Z,78.8
2022-11-02T21:27:27.331Z,78.5
2022-11-02T21:33:27.341Z,78.8
2022-11-02T21:39:27.314Z,79.1
2022-11-02T21:45:27.319Z,79.9
2022-11-02T21:51:27.348Z,80
2022-11-02T21:57:27.300Z,80.1
2022-11-02T22:03:27.537Z,80
2022-11-02T22:09:27.319Z,80.1
2022-11-02T22:15:27.322Z,80.7
2022-11-02T22:21:27.310Z,81
2022-11-02T22:27:27.360Z,81.3
2022-11-02T22:33:27.319Z,82.3
2022-11-02T22:39:27.335Z,82.9
2022-11-02T22:45:27.345Z,82.7
2022-11-02T22:51:27.321Z,83.1
2022-11-02T22:57:27.350Z,83.3
2022-11-02T23:03:27.355Z,83.9
2022-11-02T23:09:27.315Z,84.3
2022-11-02T23:15:27.337Z,84.3
2022-11-02T23:21:27.366Z,84.9
2022-11-02T23:27:27.312Z,85.3
2022-11-02T23:33:27.349Z,86.1
2022-11-02T23:39:27.336Z,86.9
2022-11-02T23:45:27.320Z,87.7
2022-11-02T23:51:27.337Z,88.1
2022-11-02T23:57:27.351Z,88.9
